sensor_id;sensor_type;location;lat;lon;timestamp;P1;durP1;ratioP1;P2;durP2;ratioP2
9997;SDS011;5038;53.064;8.624;2023-05-28T00:01:07;17.00;;;9.33;;
9997;SDS011;5038;53.064;8.624;2023-05-28T00:03:35;16.33;;;9.40;;
9997;SDS011;5038;53.064;8.624;2023-05-28T00:06:04;12.90;;;8.80;;
9997;SDS011;5038;53.064;8.624;2023-05-28T00:08:33;12.80;;;9.10;;
9997;SDS011;5038;53.064;8.624;2023-05-28T00:11:01;20.53;;;10.10;;
9997;SDS011;5038;53.064;8.624;2023-05-28T00:13:33;14.87;;;9.03;;
9997;SDS011;5038;53.064;8.624;2023-05-28T00:16:01;17.47;;;8.90;;
9997;SDS011;5038;53.064;8.624;2023-05-28T00:18:29;15.90;;;9.23;;
9997;SDS011;5038;53.064;8.624;2023-05-28T00:20:59;12.57;;;8.77;;
9997;SDS011;5038;53.064;8.624;2023-05-28T00:23:27;17.40;;;9.57;;
9997;SDS011;5038;53.064;8.624;2023-05-28T00:25:56;15.90;;;9.50;;
9997;SDS011;5038;53.064;8.624;2023-05-28T00:28:24;14.77;;;8.20;;
9997;SDS011;5038;53.064;8.624;2023-05-28T00:30:54;14.07;;;8.77;;
9997;SDS011;5038;53.064;8.624;2023-05-28T00:33:23;13.10;;;9.00;;
9997;SDS011;5038;53.064;8.624;2023-05-28T00:35:52;11.10;;;7.60;;
9997;SDS011;5038;53.064;8.624;2023-05-28T00:38:23;12.43;;;8.43;;
9997;SDS011;5038;53.064;8.624;2023-05-28T00:40:51;15.60;;;9.30;;
9997;SDS011;5038;53.064;8.624;2023-05-28T00:43:21;13.63;;;9.07;;
9997;SDS011;5038;53.064;8.624;2023-05-28T00:45:50;16.30;;;9.00;;
9997;SDS011;5038;53.064;8.624;2023-05-28T00:48:20;14.17;;;9.13;;
9997;SDS011;5038;53.064;8.624;2023-05-28T00:50:48;11.87;;;8.60;;
9997;SDS011;5038;53.064;8.624;2023-05-28T00:53:17;11.67;;;8.67;;
9997;SDS011;5038;53.064;8.624;2023-05-28T00:55:45;14.67;;;9.13;;
9997;SDS011;5038;53.064;8.624;2023-05-28T00:58:15;17.80;;;9.00;;
9997;SDS011;5038;53.064;8.624;2023-05-28T01:00:46;14.00;;;9.40;;
9997;SDS011;5038;53.064;8.624;2023-05-28T01:03:14;17.77;;;10.13;;
9997;SDS011;5038;53.064;8.624;2023-05-28T01:05:44;15.10;;;9.50;;
9997;SDS011;5038;53.064;8.624;2023-05-28T01:08:14;15.53;;;9.67;;
9997;SDS011;5038;53.064;8.624;2023-05-28T01:10:43;16.00;;;9.77;;
9997;SDS011;5038;53.064;8.624;2023-05-28T01:13:11;17.50;;;8.57;;
9997;SDS011;5038;53.064;8.624;2023-05-28T01:15:40;13.13;;;8.87;;
9997;SDS011;5038;53.064;8.624;2023-05-28T01:18:08;13.33;;;9.27;;
9997;SDS011;5038;53.064;8.624;2023-05-28T01:20:38;14.23;;;10.20;;
9997;SDS011;5038;53.064;8.624;2023-05-28T01:23:10;15.80;;;9.30;;
9997;SDS011;5038;53.064;8.624;2023-05-28T01:25:45;14.57;;;9.07;;
9997;SDS011;5038;53.064;8.624;2023-05-28T01:28:17;14.10;;;9.53;;
9997;SDS011;5038;53.064;8.624;2023-05-28T01:30:47;16.50;;;9.90;;
9997;SDS011;5038;53.064;8.624;2023-05-28T01:33:16;13.93;;;9.37;;
9997;SDS011;5038;53.064;8.624;2023-05-28T01:35:45;14.53;;;8.90;;
9997;SDS011;5038;53.064;8.624;2023-05-28T01:38:14;15.13;;;9.87;;
9997;SDS011;5038;53.064;8.624;2023-05-28T01:40:45;17.77;;;10.20;;
9997;SDS011;5038;53.064;8.624;2023-05-28T01:43:15;19.63;;;10.60;;
9997;SDS011;5038;53.064;8.624;2023-05-28T01:45:44;16.53;;;9.97;;
9997;SDS011;5038;53.064;8.624;2023-05-28T01:48:14;17.27;;;10.80;;
9997;SDS011;5038;53.064;8.624;2023-05-28T01:50:43;15.60;;;9.30;;
9997;SDS011;5038;53.064;8.624;2023-05-28T01:53:11;15.57;;;9.67;;
9997;SDS011;5038;53.064;8.624;2023-05-28T01:55:40;13.57;;;9.07;;
9997;SDS011;5038;53.064;8.624;2023-05-28T01:58:09;14.33;;;8.97;;
9997;SDS011;5038;53.064;8.624;2023-05-28T02:00:40;13.30;;;9.43;;
9997;SDS011;5038;53.064;8.624;2023-05-28T02:03:11;10.90;;;8.50;;
9997;SDS011;5038;53.064;8.624;2023-05-28T02:05:40;13.23;;;9.53;;
9997;SDS011;5038;53.064;8.624;2023-05-28T02:08:08;15.57;;;9.63;;
9997;SDS011;5038;53.064;8.624;2023-05-28T02:10:36;12.90;;;8.50;;
9997;SDS011;5038;53.064;8.624;2023-05-28T02:13:04;14.80;;;8.97;;
9997;SDS011;5038;53.064;8.624;2023-05-28T02:15:34;12.10;;;8.87;;
9997;SDS011;5038;53.064;8.624;2023-05-28T02:18:02;13.30;;;9.60;;
9997;SDS011;5038;53.064;8.624;2023-05-28T02:20:31;14.97;;;9.70;;
9997;SDS011;5038;53.064;8.624;2023-05-28T02:22:59;15.63;;;9.50;;
9997;SDS011;5038;53.064;8.624;2023-05-28T02:25:27;17.50;;;10.10;;
9997;SDS011;5038;53.064;8.624;2023-05-28T02:27:55;16.00;;;9.83;;
9997;SDS011;5038;53.064;8.624;2023-05-28T02:30:24;17.10;;;10.27;;
9997;SDS011;5038;53.064;8.624;2023-05-28T02:32:54;15.93;;;9.97;;
9997;SDS011;5038;53.064;8.624;2023-05-28T02:35:23;13.40;;;9.80;;
9997;SDS011;5038;53.064;8.624;2023-05-28T02:37:51;17.53;;;10.23;;
9997;SDS011;5038;53.064;8.624;2023-05-28T02:40:19;17.27;;;10.13;;
9997;SDS011;5038;53.064;8.624;2023-05-28T02:42:48;16.50;;;11.27;;
9997;SDS011;5038;53.064;8.624;2023-05-28T02:45:16;18.97;;;10.83;;
9997;SDS011;5038;53.064;8.624;2023-05-28T02:47:45;15.17;;;10.37;;
9997;SDS011;5038;53.064;8.624;2023-05-28T02:50:15;14.67;;;11.00;;
9997;SDS011;5038;53.064;8.624;2023-05-28T02:52:57;14.47;;;10.20;;
9997;SDS011;5038;53.064;8.624;2023-05-28T02:55:26;20.17;;;11.27;;
9997;SDS011;5038;53.064;8.624;2023-05-28T02:57:55;12.30;;;9.77;;
9997;SDS011;5038;53.064;8.624;2023-05-28T03:00:24;16.63;;;10.37;;
9997;SDS011;5038;53.064;8.624;2023-05-28T03:02:56;14.67;;;9.53;;
9997;SDS011;5038;53.064;8.624;2023-05-28T03:05:26;14.47;;;9.93;;
9997;SDS011;5038;53.064;8.624;2023-05-28T03:07:54;15.53;;;9.90;;
9997;SDS011;5038;53.064;8.624;2023-05-28T03:10:22;13.27;;;9.63;;
9997;SDS011;5038;53.064;8.624;2023-05-28T03:12:51;16.27;;;10.37;;
9997;SDS011;5038;53.064;8.624;2023-05-28T03:15:19;13.67;;;9.50;;
9997;SDS011;5038;53.064;8.624;2023-05-28T03:17:47;17.67;;;10.10;;
9997;SDS011;5038;53.064;8.624;2023-05-28T03:20:16;12.27;;;8.90;;
9997;SDS011;5038;53.064;8.624;2023-05-28T03:22:47;13.13;;;9.77;;
9997;SDS011;5038;53.064;8.624;2023-05-28T03:25:18;14.53;;;9.30;;
9997;SDS011;5038;53.064;8.624;2023-05-28T03:27:47;12.83;;;9.43;;
9997;SDS011;5038;53.064;8.624;2023-05-28T03:30:16;12.27;;;8.80;;
9997;SDS011;5038;53.064;8.624;2023-05-28T03:32:51;14.50;;;10.13;;
9997;SDS011;5038;53.064;8.624;2023-05-28T03:35:20;11.60;;;9.60;;
9997;SDS011;5038;53.064;8.624;2023-05-28T03:37:50;14.93;;;10.50;;
9997;SDS011;5038;53.064;8.624;2023-05-28T03:40:19;13.33;;;9.40;;
9997;SDS011;5038;53.064;8.624;2023-05-28T03:42:48;16.73;;;10.77;;
9997;SDS011;5038;53.064;8.624;2023-05-28T03:45:16;15.60;;;9.50;;
9997;SDS011;5038;53.064;8.624;2023-05-28T03:47:45;14.00;;;10.60;;
9997;SDS011;5038;53.064;8.624;2023-05-28T03:50:13;13.57;;;10.57;;
9997;SDS011;5038;53.064;8.624;2023-05-28T03:52:41;14.00;;;10.23;;
9997;SDS011;5038;53.064;8.624;2023-05-28T03:55:11;14.00;;;10.47;;
9997;SDS011;5038;53.064;8.624;2023-05-28T03:57:41;17.20;;;10.70;;
9997;SDS011;5038;53.064;8.624;2023-05-28T04:00:10;21.20;;;11.80;;
9997;SDS011;5038;53.064;8.624;2023-05-28T04:02:42;18.60;;;10.80;;
9997;SDS011;5038;53.064;8.624;2023-05-28T04:05:10;15.00;;;11.13;;
9997;SDS011;5038;53.064;8.624;2023-05-28T04:07:39;18.13;;;12.20;;
9997;SDS011;5038;53.064;8.624;2023-05-28T04:10:08;15.47;;;11.40;;
9997;SDS011;5038;53.064;8.624;2023-05-28T04:12:38;16.87;;;11.43;;
9997;SDS011;5038;53.064;8.624;2023-05-28T04:15:07;18.87;;;12.37;;
9997;SDS011;5038;53.064;8.624;2023-05-28T04:17:37;16.43;;;11.73;;
9997;SDS011;5038;53.064;8.624;2023-05-28T04:20:07;15.10;;;10.90;;
9997;SDS011;5038;53.064;8.624;2023-05-28T04:22:37;17.77;;;12.43;;
9997;SDS011;5038;53.064;8.624;2023-05-28T04:25:06;14.40;;;11.30;;
9997;SDS011;5038;53.064;8.624;2023-05-28T04:27:35;14.47;;;10.60;;
9997;SDS011;5038;53.064;8.624;2023-05-28T04:30:07;14.50;;;11.80;;
9997;SDS011;5038;53.064;8.624;2023-05-28T04:32:36;12.13;;;10.90;;
9997;SDS011;5038;53.064;8.624;2023-05-28T04:35:05;15.13;;;11.30;;
9997;SDS011;5038;53.064;8.624;2023-05-28T04:37:35;13.67;;;11.33;;
9997;SDS011;5038;53.064;8.624;2023-05-28T04:40:06;17.47;;;11.90;;
9997;SDS011;5038;53.064;8.624;2023-05-28T04:42:38;16.20;;;11.77;;
9997;SDS011;5038;53.064;8.624;2023-05-28T04:45:09;23.27;;;12.03;;
9997;SDS011;5038;53.064;8.624;2023-05-28T04:47:42;20.33;;;12.10;;
9997;SDS011;5038;53.064;8.624;2023-05-28T04:50:11;12.40;;;10.80;;
9997;SDS011;5038;53.064;8.624;2023-05-28T04:52:39;16.97;;;11.87;;
9997;SDS011;5038;53.064;8.624;2023-05-28T04:55:07;15.63;;;11.40;;
9997;SDS011;5038;53.064;8.624;2023-05-28T04:57:36;14.57;;;11.80;;
9997;SDS011;5038;53.064;8.624;2023-05-28T05:00:06;14.83;;;11.40;;
9997;SDS011;5038;53.064;8.624;2023-05-28T05:02:40;14.10;;;11.67;;
9997;SDS011;5038;53.064;8.624;2023-05-28T05:05:09;18.90;;;11.63;;
9997;SDS011;5038;53.064;8.624;2023-05-28T05:07:38;17.60;;;12.00;;
9997;SDS011;5038;53.064;8.624;2023-05-28T05:10:07;13.77;;;11.40;;
9997;SDS011;5038;53.064;8.624;2023-05-28T05:12:37;17.50;;;11.70;;
9997;SDS011;5038;53.064;8.624;2023-05-28T05:15:06;18.17;;;12.50;;
9997;SDS011;5038;53.064;8.624;2023-05-28T05:17:35;20.57;;;12.07;;
9997;SDS011;5038;53.064;8.624;2023-05-28T05:20:07;17.87;;;12.13;;
9997;SDS011;5038;53.064;8.624;2023-05-28T05:22:36;16.07;;;11.80;;
9997;SDS011;5038;53.064;8.624;2023-05-28T05:25:05;16.50;;;11.83;;
9997;SDS011;5038;53.064;8.624;2023-05-28T05:27:35;16.37;;;11.80;;
9997;SDS011;5038;53.064;8.624;2023-05-28T05:30:04;18.97;;;12.00;;
9997;SDS011;5038;53.064;8.624;2023-05-28T05:32:33;18.47;;;12.77;;
9997;SDS011;5038;53.064;8.624;2023-05-28T05:35:01;16.67;;;11.83;;
9997;SDS011;5038;53.064;8.624;2023-05-28T05:38:00;18.70;;;12.63;;
9997;SDS011;5038;53.064;8.624;2023-05-28T05:40:49;17.87;;;11.50;;
9997;SDS011;5038;53.064;8.624;2023-05-28T05:43:33;14.63;;;11.40;;
9997;SDS011;5038;53.064;8.624;2023-05-28T05:46:01;20.77;;;13.80;;
9997;SDS011;5038;53.064;8.624;2023-05-28T05:48:29;21.47;;;12.93;;
9997;SDS011;5038;53.064;8.624;2023-05-28T05:50:57;16.00;;;12.20;;
9997;SDS011;5038;53.064;8.624;2023-05-28T05:53:29;20.80;;;13.33;;
9997;SDS011;5038;53.064;8.624;2023-05-28T05:55:57;17.17;;;11.83;;
9997;SDS011;5038;53.064;8.624;2023-05-28T05:58:26;16.87;;;11.73;;
9997;SDS011;5038;53.064;8.624;2023-05-28T06:00:58;15.53;;;12.60;;
9997;SDS011;5038;53.064;8.624;2023-05-28T06:03:26;20.33;;;12.13;;
9997;SDS011;5038;53.064;8.624;2023-05-28T06:05:58;18.03;;;13.37;;
9997;SDS011;5038;53.064;8.624;2023-05-28T06:08:46;19.23;;;11.93;;
9997;SDS011;5038;53.064;8.624;2023-05-28T06:11:22;19.17;;;13.33;;
9997;SDS011;5038;53.064;8.624;2023-05-28T06:13:50;16.97;;;11.70;;
9997;SDS011;5038;53.064;8.624;2023-05-28T06:16:18;19.07;;;12.07;;
9997;SDS011;5038;53.064;8.624;2023-05-28T06:18:48;16.23;;;11.60;;
9997;SDS011;5038;53.064;8.624;2023-05-28T06:21:16;17.53;;;11.53;;
9997;SDS011;5038;53.064;8.624;2023-05-28T06:23:46;17.00;;;10.50;;
9997;SDS011;5038;53.064;8.624;2023-05-28T06:26:14;17.30;;;12.13;;
9997;SDS011;5038;53.064;8.624;2023-05-28T06:28:42;15.83;;;11.07;;
9997;SDS011;5038;53.064;8.624;2023-05-28T06:31:12;19.27;;;11.33;;
9997;SDS011;5038;53.064;8.624;2023-05-28T06:33:40;18.30;;;11.07;;
9997;SDS011;5038;53.064;8.624;2023-05-28T06:36:09;17.23;;;11.80;;
9997;SDS011;5038;53.064;8.624;2023-05-28T06:38:38;16.83;;;12.00;;
9997;SDS011;5038;53.064;8.624;2023-05-28T06:41:11;17.50;;;11.60;;
9997;SDS011;5038;53.064;8.624;2023-05-28T06:43:43;16.37;;;11.70;;
9997;SDS011;5038;53.064;8.624;2023-05-28T06:46:21;14.70;;;11.70;;
9997;SDS011;5038;53.064;8.624;2023-05-28T06:48:49;17.10;;;11.80;;
9997;SDS011;5038;53.064;8.624;2023-05-28T06:51:18;14.27;;;10.90;;
9997;SDS011;5038;53.064;8.624;2023-05-28T06:53:46;15.97;;;11.13;;
9997;SDS011;5038;53.064;8.624;2023-05-28T06:56:18;17.83;;;11.70;;
9997;SDS011;5038;53.064;8.624;2023-05-28T06:59:08;17.80;;;12.10;;
9997;SDS011;5038;53.064;8.624;2023-05-28T07:01:44;14.40;;;12.03;;
9997;SDS011;5038;53.064;8.624;2023-05-28T07:04:33;15.77;;;11.50;;
9997;SDS011;5038;53.064;8.624;2023-05-28T07:07:09;18.67;;;11.90;;
9997;SDS011;5038;53.064;8.624;2023-05-28T07:09:38;22.87;;;11.73;;
9997;SDS011;5038;53.064;8.624;2023-05-28T07:12:09;16.00;;;12.50;;
9997;SDS011;5038;53.064;8.624;2023-05-28T07:14:43;18.83;;;12.50;;
9997;SDS011;5038;53.064;8.624;2023-05-28T07:17:11;16.57;;;12.03;;
9997;SDS011;5038;53.064;8.624;2023-05-28T07:19:41;20.60;;;12.07;;
9997;SDS011;5038;53.064;8.624;2023-05-28T07:22:10;16.80;;;11.13;;
9997;SDS011;5038;53.064;8.624;2023-05-28T07:24:39;17.87;;;11.53;;
9997;SDS011;5038;53.064;8.624;2023-05-28T07:27:10;16.97;;;11.77;;
9997;SDS011;5038;53.064;8.624;2023-05-28T07:29:39;16.30;;;11.77;;
9997;SDS011;5038;53.064;8.624;2023-05-28T07:32:10;13.83;;;11.40;;
9997;SDS011;5038;53.064;8.624;2023-05-28T07:34:41;19.30;;;11.90;;
9997;SDS011;5038;53.064;8.624;2023-05-28T07:37:11;16.43;;;10.93;;
9997;SDS011;5038;53.064;8.624;2023-05-28T07:39:40;17.20;;;11.80;;
9997;SDS011;5038;53.064;8.624;2023-05-28T07:42:10;18.97;;;13.23;;
9997;SDS011;5038;53.064;8.624;2023-05-28T07:44:40;17.50;;;11.07;;
9997;SDS011;5038;53.064;8.624;2023-05-28T07:47:08;17.97;;;12.13;;
9997;SDS011;5038;53.064;8.624;2023-05-28T07:49:55;17.43;;;11.50;;
9997;SDS011;5038;53.064;8.624;2023-05-28T07:52:35;21.03;;;10.67;;
9997;SDS011;5038;53.064;8.624;2023-05-28T07:55:05;16.20;;;10.50;;
9997;SDS011;5038;53.064;8.624;2023-05-28T07:57:35;15.43;;;9.80;;
9997;SDS011;5038;53.064;8.624;2023-05-28T08:00:04;13.57;;;8.73;;
9997;SDS011;5038;53.064;8.624;2023-05-28T08:02:51;14.47;;;10.33;;
9997;SDS011;5038;53.064;8.624;2023-05-28T08:05:31;16.60;;;9.77;;
9997;SDS011;5038;53.064;8.624;2023-05-28T08:07:59;15.40;;;9.10;;
9997;SDS011;5038;53.064;8.624;2023-05-28T08:10:29;13.73;;;10.07;;
9997;SDS011;5038;53.064;8.624;2023-05-28T08:12:59;17.90;;;10.10;;
9997;SDS011;5038;53.064;8.624;2023-05-28T08:15:27;15.00;;;9.93;;
9997;SDS011;5038;53.064;8.624;2023-05-28T08:17:57;20.80;;;10.77;;
9997;SDS011;5038;53.064;8.624;2023-05-28T08:20:25;14.90;;;9.60;;
9997;SDS011;5038;53.064;8.624;2023-05-28T08:23:05;12.93;;;9.13;;
9997;SDS011;5038;53.064;8.624;2023-05-28T08:25:33;14.40;;;9.27;;
9997;SDS011;5038;53.064;8.624;2023-05-28T08:28:10;15.17;;;8.57;;
9997;SDS011;5038;53.064;8.624;2023-05-28T08:30:40;14.60;;;9.57;;
9997;SDS011;5038;53.064;8.624;2023-05-28T08:33:28;16.53;;;9.60;;
9997;SDS011;5038;53.064;8.624;2023-05-28T08:35:57;15.50;;;9.80;;
9997;SDS011;5038;53.064;8.624;2023-05-28T08:38:28;16.20;;;9.47;;
9997;SDS011;5038;53.064;8.624;2023-05-28T08:40:57;13.93;;;8.47;;
9997;SDS011;5038;53.064;8.624;2023-05-28T08:43:28;15.30;;;8.43;;
9997;SDS011;5038;53.064;8.624;2023-05-28T08:45:59;16.33;;;8.80;;
9997;SDS011;5038;53.064;8.624;2023-05-28T08:48:37;15.10;;;10.10;;
9997;SDS011;5038;53.064;8.624;2023-05-28T08:51:10;18.70;;;10.90;;
9997;SDS011;5038;53.064;8.624;2023-05-28T08:53:43;19.97;;;10.67;;
9997;SDS011;5038;53.064;8.624;2023-05-28T08:56:19;18.97;;;10.20;;
9997;SDS011;5038;53.064;8.624;2023-05-28T08:58:50;12.33;;;8.57;;
9997;SDS011;5038;53.064;8.624;2023-05-28T09:01:19;15.73;;;9.57;;
9997;SDS011;5038;53.064;8.624;2023-05-28T09:03:58;15.27;;;8.40;;
9997;SDS011;5038;53.064;8.624;2023-05-28T09:06:35;14.93;;;8.90;;
9997;SDS011;5038;53.064;8.624;2023-05-28T09:09:09;13.90;;;9.17;;
9997;SDS011;5038;53.064;8.624;2023-05-28T09:11:44;14.43;;;8.17;;
9997;SDS011;5038;53.064;8.624;2023-05-28T09:14:14;16.37;;;7.97;;
9997;SDS011;5038;53.064;8.624;2023-05-28T09:16:47;15.40;;;8.77;;
9997;SDS011;5038;53.064;8.624;2023-05-28T09:19:20;12.87;;;9.80;;
9997;SDS011;5038;53.064;8.624;2023-05-28T09:21:53;11.63;;;8.53;;
9997;SDS011;5038;53.064;8.624;2023-05-28T09:24:27;15.90;;;8.43;;
9997;SDS011;5038;53.064;8.624;2023-05-28T09:27:15;24.63;;;10.20;;
9997;SDS011;5038;53.064;8.624;2023-05-28T09:29:48;17.37;;;10.07;;
9997;SDS011;5038;53.064;8.624;2023-05-28T09:32:17;15.97;;;7.83;;
9997;SDS011;5038;53.064;8.624;2023-05-28T09:34:48;12.70;;;7.70;;
9997;SDS011;5038;53.064;8.624;2023-05-28T09:37:17;12.70;;;8.67;;
9997;SDS011;5038;53.064;8.624;2023-05-28T09:39:45;15.90;;;8.20;;
9997;SDS011;5038;53.064;8.624;2023-05-28T09:42:14;13.77;;;6.63;;
9997;SDS011;5038;53.064;8.624;2023-05-28T09:44:43;10.80;;;6.93;;
9997;SDS011;5038;53.064;8.624;2023-05-28T09:47:13;12.20;;;7.70;;
9997;SDS011;5038;53.064;8.624;2023-05-28T09:49:42;13.30;;;7.80;;
9997;SDS011;5038;53.064;8.624;2023-05-28T09:52:13;12.27;;;7.50;;
9997;SDS011;5038;53.064;8.624;2023-05-28T09:54:47;16.03;;;7.80;;
9997;SDS011;5038;53.064;8.624;2023-05-28T09:57:18;16.90;;;9.87;;
9997;SDS011;5038;53.064;8.624;2023-05-28T09:59:52;12.93;;;6.83;;
9997;SDS011;5038;53.064;8.624;2023-05-28T10:02:28;11.47;;;7.50;;
9997;SDS011;5038;53.064;8.624;2023-05-28T10:05:10;13.30;;;7.30;;
9997;SDS011;5038;53.064;8.624;2023-05-28T10:07:43;14.83;;;7.13;;
9997;SDS011;5038;53.064;8.624;2023-05-28T10:10:15;14.00;;;7.83;;
9997;SDS011;5038;53.064;8.624;2023-05-28T10:12:44;11.80;;;6.60;;
9997;SDS011;5038;53.064;8.624;2023-05-28T10:15:13;13.43;;;7.90;;
9997;SDS011;5038;53.064;8.624;2023-05-28T10:17:43;12.17;;;7.00;;
9997;SDS011;5038;53.064;8.624;2023-05-28T10:20:12;13.40;;;7.50;;
9997;SDS011;5038;53.064;8.624;2023-05-28T10:22:41;14.87;;;6.60;;
9997;SDS011;5038;53.064;8.624;2023-05-28T10:25:09;12.70;;;6.43;;
9997;SDS011;5038;53.064;8.624;2023-05-28T10:27:42;12.37;;;6.70;;
9997;SDS011;5038;53.064;8.624;2023-05-28T10:30:12;13.63;;;7.00;;
9997;SDS011;5038;53.064;8.624;2023-05-28T10:32:58;12.53;;;8.00;;
9997;SDS011;5038;53.064;8.624;2023-05-28T10:35:27;15.27;;;8.00;;
9997;SDS011;5038;53.064;8.624;2023-05-28T10:38:02;11.73;;;6.70;;
9997;SDS011;5038;53.064;8.624;2023-05-28T10:40:34;13.83;;;7.00;;
9997;SDS011;5038;53.064;8.624;2023-05-28T10:43:03;16.20;;;7.83;;
9997;SDS011;5038;53.064;8.624;2023-05-28T10:45:34;13.70;;;6.83;;
9997;SDS011;5038;53.064;8.624;2023-05-28T10:48:05;12.67;;;7.40;;
9997;SDS011;5038;53.064;8.624;2023-05-28T10:53:27;12.33;;;7.17;;
9997;SDS011;5038;53.064;8.624;2023-05-28T10:55:55;12.03;;;7.30;;
9997;SDS011;5038;53.064;8.624;2023-05-28T10:58:25;13.10;;;6.97;;
9997;SDS011;5038;53.064;8.624;2023-05-28T11:01:00;11.07;;;7.30;;
9997;SDS011;5038;53.064;8.624;2023-05-28T11:03:39;11.17;;;7.40;;
9997;SDS011;5038;53.064;8.624;2023-05-28T11:06:12;10.00;;;6.47;;
9997;SDS011;5038;53.064;8.624;2023-05-28T11:08:43;11.03;;;6.13;;
9997;SDS011;5038;53.064;8.624;2023-05-28T11:11:12;13.63;;;7.70;;
9997;SDS011;5038;53.064;8.624;2023-05-28T11:13:44;14.70;;;8.47;;
9997;SDS011;5038;53.064;8.624;2023-05-28T11:16:15;15.03;;;7.27;;
9997;SDS011;5038;53.064;8.624;2023-05-28T11:19:01;12.20;;;6.93;;
9997;SDS011;5038;53.064;8.624;2023-05-28T11:21:30;11.23;;;6.90;;
9997;SDS011;5038;53.064;8.624;2023-05-28T11:24:00;11.53;;;6.80;;
9997;SDS011;5038;53.064;8.624;2023-05-28T11:26:30;9.93;;;7.20;;
9997;SDS011;5038;53.064;8.624;2023-05-28T11:28:59;10.30;;;5.80;;
9997;SDS011;5038;53.064;8.624;2023-05-28T11:31:37;9.90;;;5.23;;
9997;SDS011;5038;53.064;8.624;2023-05-28T11:34:08;9.00;;;5.43;;
9997;SDS011;5038;53.064;8.624;2023-05-28T11:36:37;15.17;;;6.73;;
9997;SDS011;5038;53.064;8.624;2023-05-28T11:39:06;10.90;;;6.20;;
9997;SDS011;5038;53.064;8.624;2023-05-28T11:41:35;10.00;;;6.47;;
9997;SDS011;5038;53.064;8.624;2023-05-28T11:44:17;12.83;;;6.40;;
9997;SDS011;5038;53.064;8.624;2023-05-28T11:46:48;9.43;;;5.67;;
9997;SDS011;5038;53.064;8.624;2023-05-28T11:49:19;10.57;;;5.73;;
9997;SDS011;5038;53.064;8.624;2023-05-28T11:51:49;10.27;;;5.70;;
9997;SDS011;5038;53.064;8.624;2023-05-28T11:54:20;8.13;;;4.97;;
9997;SDS011;5038;53.064;8.624;2023-05-28T11:56:48;8.97;;;5.60;;
9997;SDS011;5038;53.064;8.624;2023-05-28T11:59:19;10.70;;;5.40;;
9997;SDS011;5038;53.064;8.624;2023-05-28T12:01:52;9.03;;;4.50;;
9997;SDS011;5038;53.064;8.624;2023-05-28T12:04:23;8.93;;;4.90;;
9997;SDS011;5038;53.064;8.624;2023-05-28T12:06:51;9.60;;;5.77;;
9997;SDS011;5038;53.064;8.624;2023-05-28T12:09:21;9.47;;;4.47;;
9997;SDS011;5038;53.064;8.624;2023-05-28T12:12:06;8.37;;;4.47;;
9997;SDS011;5038;53.064;8.624;2023-05-28T12:14:37;10.90;;;5.40;;
9997;SDS011;5038;53.064;8.624;2023-05-28T12:17:06;9.57;;;5.57;;
9997;SDS011;5038;53.064;8.624;2023-05-28T12:19:38;8.57;;;5.07;;
9997;SDS011;5038;53.064;8.624;2023-05-28T12:22:12;9.37;;;4.43;;
9997;SDS011;5038;53.064;8.624;2023-05-28T12:24:48;9.40;;;5.00;;
9997;SDS011;5038;53.064;8.624;2023-05-28T12:27:17;7.97;;;4.73;;
9997;SDS011;5038;53.064;8.624;2023-05-28T12:29:46;9.03;;;4.97;;
9997;SDS011;5038;53.064;8.624;2023-05-28T12:32:14;7.90;;;4.60;;
9997;SDS011;5038;53.064;8.624;2023-05-28T12:34:44;13.50;;;6.23;;
9997;SDS011;5038;53.064;8.624;2023-05-28T12:37:12;8.43;;;4.90;;
9997;SDS011;5038;53.064;8.624;2023-05-28T12:39:41;8.27;;;5.33;;
9997;SDS011;5038;53.064;8.624;2023-05-28T12:42:09;6.40;;;4.40;;
9997;SDS011;5038;53.064;8.624;2023-05-28T12:44:37;7.83;;;4.77;;
9997;SDS011;5038;53.064;8.624;2023-05-28T12:47:06;8.50;;;5.63;;
9997;SDS011;5038;53.064;8.624;2023-05-28T12:49:34;10.17;;;6.10;;
9997;SDS011;5038;53.064;8.624;2023-05-28T12:52:04;6.73;;;4.90;;
9997;SDS011;5038;53.064;8.624;2023-05-28T12:54:37;7.57;;;4.90;;
9997;SDS011;5038;53.064;8.624;2023-05-28T12:57:05;8.77;;;4.90;;
9997;SDS011;5038;53.064;8.624;2023-05-28T12:59:33;7.87;;;4.70;;
9997;SDS011;5038;53.064;8.624;2023-05-28T13:02:04;7.27;;;4.57;;
9997;SDS011;5038;53.064;8.624;2023-05-28T13:04:33;7.80;;;4.90;;
9997;SDS011;5038;53.064;8.624;2023-05-28T13:07:01;7.63;;;4.43;;
9997;SDS011;5038;53.064;8.624;2023-05-28T13:09:32;9.67;;;4.90;;
9997;SDS011;5038;53.064;8.624;2023-05-28T13:12:00;6.20;;;3.80;;
9997;SDS011;5038;53.064;8.624;2023-05-28T13:14:28;7.00;;;4.27;;
9997;SDS011;5038;53.064;8.624;2023-05-28T13:16:57;7.17;;;4.47;;
9997;SDS011;5038;53.064;8.624;2023-05-28T13:19:25;7.70;;;4.90;;
9997;SDS011;5038;53.064;8.624;2023-05-28T13:21:54;8.10;;;5.47;;
9997;SDS011;5038;53.064;8.624;2023-05-28T13:24:24;6.73;;;3.90;;
9997;SDS011;5038;53.064;8.624;2023-05-28T13:27:11;5.80;;;3.83;;
9997;SDS011;5038;53.064;8.624;2023-05-28T13:29:39;6.30;;;3.60;;
9997;SDS011;5038;53.064;8.624;2023-05-28T13:32:09;7.17;;;4.30;;
9997;SDS011;5038;53.064;8.624;2023-05-28T13:34:37;7.63;;;3.77;;
9997;SDS011;5038;53.064;8.624;2023-05-28T13:37:08;6.40;;;3.90;;
9997;SDS011;5038;53.064;8.624;2023-05-28T13:39:41;6.90;;;3.80;;
9997;SDS011;5038;53.064;8.624;2023-05-28T13:42:10;6.97;;;3.90;;
9997;SDS011;5038;53.064;8.624;2023-05-28T13:44:38;6.57;;;4.60;;
9997;SDS011;5038;53.064;8.624;2023-05-28T13:47:07;6.47;;;3.90;;
9997;SDS011;5038;53.064;8.624;2023-05-28T13:49:35;7.47;;;3.90;;
9997;SDS011;5038;53.064;8.624;2023-05-28T13:52:03;5.30;;;3.50;;
9997;SDS011;5038;53.064;8.624;2023-05-28T13:54:32;6.27;;;4.07;;
9997;SDS011;5038;53.064;8.624;2023-05-28T13:57:04;7.20;;;3.70;;
9997;SDS011;5038;53.064;8.624;2023-05-28T13:59:33;7.80;;;3.77;;
9997;SDS011;5038;53.064;8.624;2023-05-28T14:02:02;6.50;;;3.43;;
9997;SDS011;5038;53.064;8.624;2023-05-28T14:04:31;7.80;;;3.50;;
9997;SDS011;5038;53.064;8.624;2023-05-28T14:06:59;8.30;;;3.60;;
9997;SDS011;5038;53.064;8.624;2023-05-28T14:09:27;8.50;;;4.20;;
9997;SDS011;5038;53.064;8.624;2023-05-28T14:11:56;7.13;;;4.70;;
9997;SDS011;5038;53.064;8.624;2023-05-28T14:14:28;8.30;;;4.57;;
9997;SDS011;5038;53.064;8.624;2023-05-28T14:16:57;7.67;;;4.30;;
9997;SDS011;5038;53.064;8.624;2023-05-28T14:19:25;8.90;;;4.13;;
9997;SDS011;5038;53.064;8.624;2023-05-28T14:21:53;7.33;;;4.00;;
9997;SDS011;5038;53.064;8.624;2023-05-28T14:24:22;8.33;;;5.33;;
9997;SDS011;5038;53.064;8.624;2023-05-28T14:26:50;9.13;;;4.23;;
9997;SDS011;5038;53.064;8.624;2023-05-28T14:29:18;6.40;;;3.70;;
9997;SDS011;5038;53.064;8.624;2023-05-28T14:31:48;8.10;;;4.60;;
9997;SDS011;5038;53.064;8.624;2023-05-28T14:34:16;17.33;;;6.40;;
9997;SDS011;5038;53.064;8.624;2023-05-28T14:36:45;6.93;;;4.23;;
9997;SDS011;5038;53.064;8.624;2023-05-28T14:39:13;6.83;;;4.40;;
9997;SDS011;5038;53.064;8.624;2023-05-28T14:41:41;7.60;;;4.50;;
9997;SDS011;5038;53.064;8.624;2023-05-28T14:44:09;8.00;;;4.50;;
9997;SDS011;5038;53.064;8.624;2023-05-28T14:46:38;9.80;;;7.23;;
9997;SDS011;5038;53.064;8.624;2023-05-28T14:49:08;7.57;;;4.30;;
9997;SDS011;5038;53.064;8.624;2023-05-28T14:51:36;8.53;;;4.50;;
9997;SDS011;5038;53.064;8.624;2023-05-28T14:54:06;12.33;;;9.60;;
9997;SDS011;5038;53.064;8.624;2023-05-28T14:56:34;16.30;;;14.50;;
9997;SDS011;5038;53.064;8.624;2023-05-28T14:59:03;22.80;;;20.40;;
9997;SDS011;5038;53.064;8.624;2023-05-28T15:01:33;20.63;;;17.40;;
9997;SDS011;5038;53.064;8.624;2023-05-28T15:04:01;12.57;;;10.23;;
9997;SDS011;5038;53.064;8.624;2023-05-28T15:06:31;8.27;;;5.43;;
9997;SDS011;5038;53.064;8.624;2023-05-28T15:09:03;11.90;;;10.17;;
9997;SDS011;5038;53.064;8.624;2023-05-28T15:11:31;8.87;;;5.23;;
9997;SDS011;5038;53.064;8.624;2023-05-28T15:14:00;7.40;;;4.07;;
9997;SDS011;5038;53.064;8.624;2023-05-28T15:16:28;7.37;;;3.70;;
9997;SDS011;5038;53.064;8.624;2023-05-28T15:18:56;8.53;;;5.00;;
9997;SDS011;5038;53.064;8.624;2023-05-28T15:21:25;11.23;;;5.40;;
9997;SDS011;5038;53.064;8.624;2023-05-28T15:23:56;8.30;;;4.17;;